createdAt,value
2018-07-10T00:00:46.948Z,69.83
2018-07-10T00:01:46.952Z,69.93
2018-07-10T00:02:46.956Z,70.79
2018-07-10T00:03:46.958Z,71.47
2018-07-10T00:04:46.965Z,71.28
2018-07-10T00:05:46.969Z,70.98
2018-07-10T00:06:46.968Z,71.56
2018-07-10T00:07:46.974Z,71.66
2018-07-10T00:08:46.976Z,71.56
2018-07-10T00:09:46.980Z,70.79
2018-07-10T00:10:46.985Z,70.98
2018-07-10T00:11:46.985Z,71.37
2018-07-10T00:12:46.991Z,71.56
2018-07-10T00:13:46.992Z,71.76
2018-07-10T00:14:46.995Z,71.47
2018-07-10T00:15:47.004Z,71.28
2018-07-10T00:16:47.005Z,70.70
2018-07-10T00:17:47.008Z,69.73
2018-07-10T00:18:47.009Z,69.70
2018-07-10T00:19:47.012Z,69.99
2018-07-10T00:20:47.015Z,70.37
2018-07-10T00:21:47.023Z,70.56
2018-07-10T00:22:47.024Z,71.14
2018-07-10T00:23:47.027Z,70.86
2018-07-10T00:24:47.028Z,71.14
2018-07-10T00:25:47.034Z,71.34
2018-07-10T00:26:47.074Z,72.68
2018-07-10T00:27:47.040Z,73.65
2018-07-10T00:28:47.045Z,74.32
2018-07-10T00:29:47.048Z,75.09
2018-07-10T00:30:47.458Z,75.67
2018-07-10T00:31:47.051Z,77.40
2018-07-10T00:32:47.055Z,78.17
2018-07-10T00:33:47.059Z,79.33
2018-07-10T00:34:47.061Z,80.58
2018-07-10T00:35:47.066Z,81.25
2018-07-10T00:36:47.067Z,81.06
2018-07-10T00:37:47.072Z,80.92
2018-07-10T00:38:47.075Z,81.98
2018-07-10T00:39:47.077Z,83.04
2018-07-10T00:40:47.081Z,82.65
2018-07-10T00:41:47.083Z,83.52
2018-07-10T00:42:47.086Z,84.58
2018-07-10T00:43:47.088Z,84.97
2018-07-10T00:44:47.091Z,85.83
2018-07-10T00:45:47.095Z,85.88
2018-07-10T00:46:47.097Z,86.65
2018-07-10T00:47:47.100Z,86.56
2018-07-10T00:48:47.104Z,88.19
2018-07-10T00:49:47.106Z,88.00
2018-07-10T00:50:47.111Z,88.10
2018-07-10T00:51:47.110Z,89.15
2018-07-10T00:52:47.116Z,90.69
2018-07-10T00:53:47.116Z,91.17
2018-07-10T00:54:47.118Z,90.65
2018-07-10T00:55:47.122Z,91.42
2018-07-10T00:56:47.133Z,91.13
2018-07-10T00:57:47.126Z,90.84
2018-07-10T00:58:47.130Z,91.03
2018-07-10T00:59:47.148Z,91.52
2018-07-10T01:00:47.140Z,92.47
2018-07-10T01:01:47.138Z,91.61
2018-07-10T01:02:47.138Z,92.38
2018-07-10T01:03:47.139Z,91.95
2018-07-10T01:04:47.143Z,94.68
2018-07-10T01:05:47.145Z,95.84
2018-07-10T01:06:47.146Z,94.93
2018-07-10T01:07:47.149Z,95.12
2018-07-10T01:08:47.155Z,95.03
2018-07-10T01:09:47.156Z,94.83
2018-07-10T01:10:47.157Z,93.68
2018-07-10T01:11:47.157Z,94.64
2018-07-10T01:12:47.159Z,93.68
2018-07-10T01:13:47.163Z,92.24
2018-07-10T01:14:47.164Z,92.33
2018-07-10T01:15:47.169Z,92.24
2018-07-10T01:16:47.168Z,92.43
2018-07-10T01:17:47.171Z,92.43
2018-07-10T01:18:47.202Z,92.43
2018-07-10T01:19:47.174Z,93.01
2018-07-10T01:20:47.179Z,93.29
2018-07-10T01:21:47.182Z,93.29
2018-07-10T01:22:47.183Z,94.26
2018-07-10T01:23:47.188Z,94.06
2018-07-10T01:24:47.186Z,94.54
2018-07-10T01:25:47.188Z,94.64
2018-07-10T01:26:47.195Z,94.83
2018-07-10T01:27:47.192Z,94.64
2018-07-10T01:28:47.197Z,95.12
2018-07-10T01:29:47.196Z,94.83
2018-07-10T01:30:47.200Z,94.93
2018-07-10T01:31:47.201Z,95.89
2018-07-10T01:32:47.204Z,95.45
2018-07-10T01:33:47.214Z,95.03
2018-07-10T01:34:47.204Z,94.78
2018-07-10T01:35:47.207Z,95.70
2018-07-10T01:36:47.209Z,95.50
2018-07-10T01:37:47.210Z,96.32
2018-07-10T01:38:47.213Z,96.75
2018-07-10T01:39:47.215Z,96.99
2018-07-10T01:40:47.219Z,97.28
2018-07-10T01:41:47.225Z,98.24
2018-07-10T01:42:47.223Z,98.53
2018-07-10T01:43:47.221Z,98.24
2018-07-10T01:44:47.228Z,97.76
2018-07-10T01:45:47.228Z,97.47
2018-07-10T01:46:47.228Z,98.34
2018-07-10T01:47:47.230Z,97.96
2018-07-10T01:48:47.236Z,97.96
2018-07-10T01:49:47.233Z,97.57
2018-07-10T01:50:47.236Z,96.99
2018-07-10T01:51:47.235Z,98.24
2018-07-10T01:52:47.241Z,97.96
2018-07-10T01:53:47.248Z,98.43
2018-07-10T01:54:47.241Z,97.96
2018-07-10T01:55:47.242Z,98.43
2018-07-10T01:56:47.245Z,97.96
2018-07-10T01:57:47.250Z,98.19
2018-07-10T01:58:47.248Z,97.96
2018-07-10T01:59:47.251Z,97.86
2018-07-10T02:00:47.252Z,98.43
2018-07-10T02:01:47.253Z,98.24
2018-07-10T02:02:47.259Z,98.00
2018-07-10T02:03:47.257Z,98.43
2018-07-10T02:04:47.258Z,98.77
2018-07-10T02:05:47.260Z,99.05
2018-07-10T02:06:47.262Z,99.92
2018-07-10T02:07:47.262Z,98.77
2018-07-10T02:08:47.266Z,99.34
2018-07-10T02:09:47.267Z,99.34
2018-07-10T02:10:47.269Z,99.34
2018-07-10T02:11:47.271Z,99.34
2018-07-10T02:12:47.276Z,99.99
2018-07-10T02:13:47.273Z,99.99
2018-07-10T02:14:47.274Z,99.99
2018-07-10T02:15:47.278Z,99.99
2018-07-10T02:16:47.279Z,99.99
2018-07-10T02:17:47.281Z,99.99
2018-07-10T02:18:47.282Z,99.99
2018-07-10T02:19:47.281Z,99.99
2018-07-10T02:20:47.291Z,99.99
2018-07-10T02:21:47.290Z,99.73
2018-07-10T02:22:47.297Z,99.99
2018-07-10T02:23:47.290Z,99.30
2018-07-10T02:24:47.294Z,99.05
2018-07-10T02:25:47.315Z,98.86
2018-07-10T02:26:47.293Z,97.91
2018-07-10T02:27:47.294Z,98.77
2018-07-10T02:28:47.294Z,98.77
2018-07-10T02:29:47.301Z,99.05
2018-07-10T02:30:47.308Z,98.86
2018-07-10T02:31:47.300Z,98.86
2018-07-10T02:32:47.307Z,98.86
2018-07-10T02:33:47.312Z,98.00
2018-07-10T02:34:47.309Z,98.77
2018-07-10T02:35:47.315Z,99.05
2018-07-10T02:36:47.307Z,99.15
2018-07-10T02:37:47.309Z,99.92
2018-07-10T02:38:47.314Z,99.99
2018-07-10T02:39:47.313Z,99.99
2018-07-10T02:40:47.317Z,99.99
2018-07-10T02:41:47.318Z,99.99
2018-07-10T02:42:47.320Z,99.99
2018-07-10T02:43:47.324Z,99.99
2018-07-10T02:44:47.326Z,99.99
2018-07-10T02:45:47.323Z,99.99
2018-07-10T02:46:47.323Z,99.99
2018-07-10T02:47:47.334Z,99.99
2018-07-10T02:48:47.325Z,99.99
2018-07-10T02:49:47.327Z,99.99
2018-07-10T02:50:47.329Z,99.99
2018-07-10T02:51:47.331Z,99.99
2018-07-10T02:52:47.331Z,99.99
2018-07-10T02:53:47.341Z,99.99
2018-07-10T02:54:47.335Z,99.99
2018-07-10T02:55:47.338Z,99.99
2018-07-10T02:56:47.339Z,99.99
2018-07-10T02:57:47.341Z,99.99
2018-07-10T02:58:47.343Z,99.82
2018-07-10T02:59:47.343Z,99.73
2018-07-10T03:00:47.349Z,99.99
2018-07-10T03:01:47.347Z,99.99
2018-07-10T03:02:47.349Z,99.82
2018-07-10T03:03:47.349Z,99.63
2018-07-10T03:04:47.358Z,99.54
2018-07-10T03:05:47.353Z,99.73
2018-07-10T03:06:47.355Z,99.54
2018-07-10T03:07:47.356Z,98.96
2018-07-10T03:08:47.358Z,99.54
2018-07-10T03:09:47.361Z,99.63
2018-07-10T03:10:47.372Z,99.73
2018-07-10T03:11:47.365Z,99.25
2018-07-10T03:12:47.364Z,99.34
2018-07-10T03:13:47.366Z,99.34
2018-07-10T03:14:47.368Z,99.05
2018-07-10T03:15:47.371Z,98.96
2018-07-10T03:16:47.372Z,99.34
2018-07-10T03:17:47.374Z,98.86
2018-07-10T03:18:47.375Z,99.54
2018-07-10T03:19:47.382Z,99.63
2018-07-10T03:20:47.388Z,99.73
2018-07-10T03:21:47.382Z,99.15
2018-07-10T03:22:47.383Z,99.05
2018-07-10T03:23:47.389Z,99.25
2018-07-10T03:24:47.388Z,99.54
2018-07-10T03:25:47.388Z,99.92
2018-07-10T03:26:47.391Z,99.73
2018-07-10T03:27:47.393Z,99.99
2018-07-10T03:28:47.394Z,99.99
2018-07-10T03:29:47.397Z,99.49
2018-07-10T03:30:47.400Z,98.96
2018-07-10T03:31:47.398Z,99.30
2018-07-10T03:32:47.399Z,99.99
2018-07-10T03:33:47.404Z,99.54
2018-07-10T03:34:47.406Z,98.86
2018-07-10T03:35:47.410Z,98.82
2018-07-10T03:36:47.407Z,98.67
2018-07-10T03:37:47.413Z,98.67
2018-07-10T03:38:47.413Z,97.81
2018-07-10T03:39:47.414Z,97.52
2018-07-10T03:40:47.425Z,97.71
2018-07-10T03:41:47.416Z,97.52
2018-07-10T03:42:47.419Z,97.61
2018-07-10T03:43:47.420Z,96.85
2018-07-10T03:44:47.564Z,97.71
2018-07-10T03:45:47.430Z,97.91
2018-07-10T03:46:47.432Z,97.47
2018-07-10T03:47:47.425Z,97.76
2018-07-10T03:48:47.429Z,97.95
2018-07-10T03:49:47.441Z,97.47
2018-07-10T03:50:47.434Z,98.19
2018-07-10T03:51:47.432Z,97.86
2018-07-10T03:52:47.437Z,97.04
2018-07-10T03:53:47.436Z,95.98
2018-07-10T03:54:47.437Z,95.98
2018-07-10T03:55:47.438Z,96.66
2018-07-10T03:56:47.439Z,96.18
2018-07-10T03:57:47.442Z,96.18
2018-07-10T03:58:47.442Z,96.47
2018-07-10T03:59:47.443Z,96.32
2018-07-10T04:00:47.446Z,95.75
2018-07-10T04:01:47.445Z,96.32
2018-07-10T04:02:47.450Z,96.99
2018-07-10T04:03:47.449Z,97.47
2018-07-10T04:04:47.449Z,97.61
2018-07-10T04:05:47.448Z,97.61
2018-07-10T04:06:47.452Z,97.90
2018-07-10T04:07:47.452Z,98.28
2018-07-10T04:08:47.450Z,98.96
2018-07-10T04:09:47.451Z,98.47
2018-07-10T04:10:47.455Z,98.38
2018-07-10T04:11:47.521Z,99.24
2018-07-10T04:12:47.455Z,99.24
2018-07-10T04:13:47.454Z,99.82
2018-07-10T04:14:47.453Z,99.82
2018-07-10T04:15:47.453Z,99.63
2018-07-10T04:16:47.454Z,99.15
2018-07-10T04:17:47.499Z,99.24
2018-07-10T04:18:47.492Z,98.76
2018-07-10T04:19:47.455Z,99.82
2018-07-10T04:20:47.459Z,99.99
2018-07-10T04:21:47.460Z,99.99
2018-07-10T04:22:47.462Z,99.99
2018-07-10T04:23:47.455Z,99.99
2018-07-10T04:24:47.457Z,99.99
2018-07-10T04:25:47.457Z,99.99
2018-07-10T04:26:47.457Z,99.72
2018-07-10T04:27:47.457Z,99.72
2018-07-10T04:28:47.496Z,99.05
2018-07-10T04:29:47.458Z,98.00
2018-07-10T04:30:47.458Z,97.23
2018-07-10T04:31:47.458Z,97.42
2018-07-10T04:32:47.460Z,96.94
2018-07-10T04:33:47.459Z,97.56
2018-07-10T04:34:47.461Z,96.80
2018-07-10T04:35:47.459Z,96.61
2018-07-10T04:36:47.463Z,96.89
2018-07-10T04:37:47.459Z,97.90
2018-07-10T04:38:47.460Z,98.10
2018-07-10T04:39:47.461Z,97.33
2018-07-10T04:40:47.465Z,98.00
2018-07-10T04:41:47.459Z,97.90
2018-07-10T04:42:47.460Z,97.80
2018-07-10T04:43:47.460Z,98.10
2018-07-10T04:44:47.461Z,98.76
2018-07-10T04:45:47.463Z,99.99
2018-07-10T04:46:47.462Z,99.63
2018-07-10T04:47:47.465Z,98.67
2018-07-10T04:48:47.470Z,97.95
2018-07-10T04:49:47.462Z,97.47
2018-07-10T04:50:47.470Z,97.56
2018-07-10T04:51:47.462Z,98.71
2018-07-10T04:52:47.460Z,99.10
2018-07-10T04:53:47.463Z,99.38
2018-07-10T04:54:47.462Z,99.99
2018-07-10T04:55:47.461Z,99.99
2018-07-10T04:56:47.460Z,99.99
2018-07-10T04:57:47.460Z,99.99
2018-07-10T04:58:47.461Z,99.58
2018-07-10T04:59:47.489Z,99.38
2018-07-10T05:00:47.461Z,99.38
2018-07-10T05:01:47.460Z,99.77
2018-07-10T05:02:47.461Z,99.99
2018-07-10T05:03:47.461Z,99.99
2018-07-10T05:04:47.459Z,99.99
2018-07-10T05:05:47.515Z,99.99
2018-07-10T05:06:47.461Z,99.99
2018-07-10T05:07:47.459Z,99.99
2018-07-10T05:08:47.460Z,99.96
2018-07-10T05:09:47.458Z,99.99
2018-07-10T05:10:47.458Z,99.99
2018-07-10T05:11:47.459Z,99.99
2018-07-10T05:12:47.458Z,99.99
2018-07-10T05:13:47.459Z,99.99
2018-07-10T05:14:47.455Z,99.99
2018-07-10T05:15:47.456Z,99.99
2018-07-10T05:16:47.456Z,99.99
2018-07-10T05:17:47.479Z,99.99
2018-07-10T05:18:47.455Z,99.99
2018-07-10T05:19:47.455Z,99.99
2018-07-10T05:20:47.454Z,99.99
2018-07-10T05:21:47.453Z,99.99
2018-07-10T05:22:47.462Z,99.99
2018-07-10T05:23:47.452Z,99.99
2018-07-10T05:24:47.452Z,99.99
2018-07-10T05:25:47.453Z,99.99
2018-07-10T05:26:47.452Z,99.99
2018-07-10T05:27:47.451Z,98.66
2018-07-10T05:28:47.474Z,99.24
2018-07-10T05:29:47.452Z,99.99
2018-07-10T05:30:47.451Z,99.99
2018-07-10T05:31:47.449Z,99.99
2018-07-10T05:32:47.451Z,99.99
2018-07-10T05:33:47.450Z,99.99
2018-07-10T05:34:47.459Z,99.99
2018-07-10T05:35:47.447Z,99.99
2018-07-10T05:36:47.447Z,99.99
2018-07-10T05:37:47.448Z,99.99
2018-07-10T05:38:47.446Z,99.99
2018-07-10T05:39:47.445Z,99.99
2018-07-10T05:40:47.448Z,99.99
2018-07-10T05:41:47.445Z,99.99
2018-07-10T05:42:47.447Z,99.99
2018-07-10T05:43:47.445Z,99.99
2018-07-10T05:44:47.443Z,99.99
2018-07-10T05:45:47.442Z,99.81
2018-07-10T05:46:47.443Z,99.33
2018-07-10T05:47:47.449Z,99.05
2018-07-10T05:48:47.440Z,99.81
2018-07-10T05:49:47.440Z,99.24
2018-07-10T05:50:47.441Z,99.99
2018-07-10T05:51:47.503Z,99.33
2018-07-10T05:52:47.438Z,99.99
2018-07-10T05:53:47.440Z,99.52
2018-07-10T05:54:47.441Z,99.29
2018-07-10T05:55:47.437Z,99.24
2018-07-10T05:56:47.437Z,98.62
2018-07-10T05:57:47.436Z,99.10
2018-07-10T05:58:47.452Z,98.76
2018-07-10T05:59:47.434Z,98.71
2018-07-10T06:00:47.436Z,98.81
2018-07-10T06:01:47.442Z,97.80
2018-07-10T06:02:47.434Z,97.71
2018-07-10T06:03:47.438Z,98.71
2018-07-10T06:04:47.437Z,98.71
2018-07-10T06:05:47.434Z,97.85
2018-07-10T06:06:47.435Z,97.66
2018-07-10T06:07:47.434Z,98.05
2018-07-10T06:08:47.433Z,98.14
2018-07-10T06:09:47.433Z,97.75
2018-07-10T06:10:47.436Z,97.85
2018-07-10T06:11:47.434Z,97.75
2018-07-10T06:12:47.435Z,98.81
2018-07-10T06:13:47.432Z,98.62
2018-07-10T06:14:47.435Z,98.33
2018-07-10T06:15:47.470Z,98.14
2018-07-10T06:16:47.432Z,97.47
2018-07-10T06:17:47.433Z,97.47
2018-07-10T06:18:47.435Z,96.42
2018-07-10T06:19:47.435Z,95.94
2018-07-10T06:20:47.437Z,96.22
2018-07-10T06:21:47.433Z,96.32
2018-07-10T06:22:47.432Z,96.32
2018-07-10T06:23:47.435Z,97.09
2018-07-10T06:24:47.432Z,96.70
2018-07-10T06:25:47.432Z,96.61
2018-07-10T06:26:47.433Z,97.56
2018-07-10T06:27:47.432Z,97.95
2018-07-10T06:28:47.431Z,98.05
2018-07-10T06:29:47.432Z,97.66
2018-07-10T06:30:47.435Z,98.14
2018-07-10T06:31:47.431Z,97.66
2018-07-10T06:32:47.432Z,98.33
2018-07-10T06:33:47.434Z,97.56
2018-07-10T06:34:47.435Z,97.66
2018-07-10T06:35:47.430Z,98.43
2018-07-10T06:36:47.431Z,98.33
2018-07-10T06:37:47.434Z,98.76
2018-07-10T06:38:47.431Z,99.29
2018-07-10T06:39:47.459Z,99.29
2018-07-10T06:40:47.438Z,99.58
2018-07-10T06:41:47.431Z,99.48
2018-07-10T06:42:47.430Z,99.99
2018-07-10T06:43:47.430Z,99.87
2018-07-10T06:44:47.430Z,99.58
2018-07-10T06:45:47.436Z,99.29
2018-07-10T06:46:47.433Z,98.71
2018-07-10T06:47:47.429Z,98.71
2018-07-10T06:48:47.562Z,99.38
2018-07-10T06:49:47.431Z,99.77
2018-07-10T06:50:47.431Z,98.62
2018-07-10T06:51:47.431Z,98.14
2018-07-10T06:52:47.514Z,98.86
2018-07-10T06:53:47.433Z,98.86
2018-07-10T06:54:47.431Z,97.80
2018-07-10T06:55:47.432Z,97.42
2018-07-10T06:56:47.434Z,97.42
2018-07-10T06:57:47.432Z,97.33
2018-07-10T06:58:47.433Z,97.04
2018-07-10T06:59:47.438Z,96.89
2018-07-10T07:00:47.480Z,96.94
2018-07-10T07:01:47.452Z,96.94
2018-07-10T07:02:47.449Z,96.94
2018-07-10T07:03:47.432Z,97.04
2018-07-10T07:04:47.433Z,96.94
2018-07-10T07:05:47.436Z,97.14
2018-07-10T07:06:47.433Z,96.84
2018-07-10T07:07:47.452Z,96.66
2018-07-10T07:08:47.434Z,96.66
2018-07-10T07:09:47.434Z,96.27
2018-07-10T07:10:47.436Z,96.37
2018-07-10T07:11:47.435Z,96.47
2018-07-10T07:12:47.439Z,96.08
2018-07-10T07:13:47.435Z,94.93
2018-07-10T07:14:47.437Z,94.45
2018-07-10T07:15:47.458Z,95.60
2018-07-10T07:16:47.437Z,95.41
2018-07-10T07:17:47.443Z,95.60
2018-07-10T07:18:47.437Z,95.41
2018-07-10T07:19:47.438Z,95.41
2018-07-10T07:20:47.440Z,95.60
2018-07-10T07:21:47.439Z,95.60
2018-07-10T07:22:47.440Z,95.70
2018-07-10T07:23:47.491Z,95.70
2018-07-10T07:24:47.439Z,96.08
2018-07-10T07:25:47.441Z,95.79
2018-07-10T07:26:47.446Z,94.84
2018-07-10T07:27:47.442Z,94.93
2018-07-10T07:28:47.444Z,94.55
2018-07-10T07:29:47.442Z,96.03
2018-07-10T07:30:47.448Z,94.98
2018-07-10T07:31:47.460Z,94.98
2018-07-10T07:32:47.443Z,94.89
2018-07-10T07:33:47.449Z,94.40
2018-07-10T07:34:47.446Z,94.89
2018-07-10T07:35:47.444Z,94.31
2018-07-10T07:36:47.450Z,94.31
2018-07-10T07:37:47.447Z,94.31
2018-07-10T07:38:47.447Z,94.50
2018-07-10T07:39:47.463Z,93.93
2018-07-10T07:40:47.448Z,93.44
2018-07-10T07:41:47.448Z,93.73
2018-07-10T07:42:47.472Z,93.54
2018-07-10T07:43:47.545Z,93.73
2018-07-10T07:44:47.454Z,93.54
2018-07-10T07:45:47.452Z,92.97
2018-07-10T07:46:47.453Z,93.54
2018-07-10T07:47:47.457Z,93.54
2018-07-10T07:48:47.453Z,94.50
2018-07-10T07:49:47.455Z,94.93
2018-07-10T07:50:47.482Z,94.74
2018-07-10T07:51:47.457Z,94.40
2018-07-10T07:52:47.464Z,94.21
2018-07-10T07:53:47.463Z,94.69
2018-07-10T07:54:47.459Z,94.98
2018-07-10T07:55:47.459Z,95.07
2018-07-10T07:56:47.458Z,94.31
2018-07-10T07:57:47.459Z,94.40
2018-07-10T07:58:47.460Z,93.35
2018-07-10T07:59:47.462Z,94.07
2018-07-10T08:00:47.460Z,93.98
2018-07-10T08:01:47.465Z,94.93
2018-07-10T08:02:48.548Z,94.84
2018-07-10T08:03:47.593Z,94.64
2018-07-10T08:04:47.467Z,95.22
2018-07-10T08:05:47.463Z,94.50
2018-07-10T08:06:47.466Z,94.64
2018-07-10T08:07:47.464Z,94.69
2018-07-10T08:08:47.465Z,94.59
2018-07-10T08:09:47.467Z,94.69
2018-07-10T08:10:47.467Z,94.50
2018-07-10T08:11:47.466Z,94.59
2018-07-10T08:12:47.466Z,94.89
2018-07-10T08:13:47.467Z,94.40
2018-07-10T08:14:47.470Z,94.21
2018-07-10T08:15:47.472Z,94.40
2018-07-10T08:16:47.471Z,95.07
2018-07-10T08:17:47.469Z,94.69
2018-07-10T08:18:47.474Z,94.50
2018-07-10T08:19:47.471Z,95.26
2018-07-10T08:20:47.472Z,95.75
2018-07-10T08:21:47.473Z,95.65
2018-07-10T08:22:47.477Z,95.36
2018-07-10T08:23:47.485Z,94.98
2018-07-10T08:24:47.522Z,93.44
2018-07-10T08:25:47.480Z,93.35
2018-07-10T08:26:47.481Z,93.06
2018-07-10T08:27:47.475Z,93.35
2018-07-10T08:28:47.477Z,93.16
2018-07-10T08:29:47.479Z,92.97
2018-07-10T08:30:47.480Z,93.44
2018-07-10T08:31:47.480Z,92.97
2018-07-10T08:32:47.482Z,93.54
2018-07-10T08:33:47.567Z,93.21
2018-07-10T08:34:47.482Z,93.88
2018-07-10T08:35:47.485Z,93.88
2018-07-10T08:36:47.483Z,92.82
2018-07-10T08:37:47.502Z,92.77
2018-07-10T08:38:47.750Z,91.42
2018-07-10T08:39:47.491Z,90.66
2018-07-10T08:40:47.486Z,90.66
2018-07-10T08:41:47.489Z,90.90
2018-07-10T08:42:47.498Z,89.07
2018-07-10T08:43:47.496Z,87.96
2018-07-10T08:44:47.498Z,87.19
2018-07-10T08:45:47.495Z,86.72
2018-07-10T08:46:47.508Z,85.08
2018-07-10T08:47:47.515Z,83.39
2018-07-10T08:48:47.498Z,81.48
2018-07-10T08:49:47.500Z,76.42
2018-07-10T08:50:47.564Z,72.48
2018-07-10T08:51:47.524Z,69.23
2018-07-10T08:52:47.509Z,66.59
2018-07-10T08:53:47.513Z,64.43
2018-07-10T08:54:47.515Z,62.04
2018-07-10T08:55:47.520Z,59.84
2018-07-10T08:56:47.528Z,56.29
2018-07-10T08:57:47.527Z,55.77
2018-07-10T08:58:47.532Z,55.77
2018-07-10T08:59:47.593Z,54.58
2018-07-10T09:00:47.545Z,56.56
2018-07-10T09:01:47.555Z,57.56
2018-07-10T09:02:47.553Z,59.44
2018-07-10T09:03:47.563Z,61.02
2018-07-10T09:04:47.563Z,61.47
2018-07-10T09:05:47.567Z,63.60
2018-07-10T09:06:47.577Z,64.28
2018-07-10T09:07:47.582Z,63.40
2018-07-10T09:08:47.591Z,64.08
2018-07-10T09:09:47.592Z,63.24
2018-07-10T09:10:47.594Z,60.44
2018-07-10T09:11:47.597Z,57.46
2018-07-10T09:12:47.603Z,55.68
2018-07-10T09:13:47.620Z,54.19
2018-07-10T09:14:47.613Z,51.14
2018-07-10T09:15:47.624Z,49.22
2018-07-10T09:16:47.626Z,48.27
2018-07-10T09:17:47.629Z,47.30
2018-07-10T09:18:47.636Z,46.64
2018-07-10T09:19:47.649Z,46.47
2018-07-10T09:20:47.648Z,46.37
2018-07-10T09:21:47.655Z,44.16
2018-07-10T09:22:47.664Z,43.96
2018-07-10T09:23:47.671Z,44.26
2018-07-10T09:24:47.686Z,44.26
2018-07-10T09:25:47.682Z,44.41
2018-07-10T09:26:47.698Z,46.11
2018-07-10T09:27:47.694Z,47.62
2018-07-10T09:28:47.702Z,49.85
2018-07-10T09:29:47.728Z,49.34
2018-07-10T09:30:47.716Z,49.12
2018-07-10T09:31:47.724Z,47.40
2018-07-10T09:32:47.732Z,47.08
2018-07-10T09:33:47.756Z,47.08
2018-07-10T09:34:47.747Z,46.31
2018-07-10T09:35:47.750Z,46.86
2018-07-10T09:36:47.756Z,46.41
2018-07-10T09:37:47.763Z,46.04
2018-07-10T09:38:47.772Z,46.62
2018-07-10T09:39:47.816Z,46.69
2018-07-10T09:40:47.789Z,47.28
2018-07-10T09:41:47.792Z,48.22
2018-07-10T09:42:47.800Z,48.49
2018-07-10T09:43:47.822Z,48.95
2018-07-10T09:44:47.813Z,48.08
2018-07-10T09:45:47.818Z,48.74
2018-07-10T09:46:47.825Z,48.71
2018-07-10T09:47:47.834Z,49.46
2018-07-10T09:48:47.842Z,49.34
2018-07-10T09:49:47.863Z,50.21
2018-07-10T09:50:47.861Z,51.37
2018-07-10T09:51:47.866Z,51.64
2018-07-10T09:52:47.863Z,50.35
2018-07-10T09:53:47.880Z,50.74
2018-07-10T09:54:47.964Z,51.29
2018-07-10T09:55:47.887Z,52.55
2018-07-10T09:56:47.887Z,53.71
2018-07-10T09:57:47.891Z,53.71
2018-07-10T09:58:47.898Z,53.42
2018-07-10T09:59:47.902Z,51.78
2018-07-10T10:00:47.908Z,52.65
2018-07-10T10:01:47.932Z,53.20
2018-07-10T10:02:47.919Z,53.59
2018-07-10T10:03:47.923Z,54.72
2018-07-10T10:04:47.930Z,55.49
2018-07-10T10:05:47.936Z,56.39
2018-07-10T10:06:47.940Z,57.04
2018-07-10T10:07:47.950Z,57.71
2018-07-10T10:08:47.952Z,58.10
2018-07-10T10:09:47.955Z,57.81
2018-07-10T10:10:47.963Z,58.77
2018-07-10T10:11:47.965Z,56.84
2018-07-10T10:12:47.974Z,54.82
2018-07-10T10:13:48.007Z,53.56
2018-07-10T10:14:47.980Z,54.07
2018-07-10T10:15:47.985Z,53.69
2018-07-10T10:16:47.991Z,55.04
2018-07-10T10:17:47.995Z,55.49
2018-07-10T10:18:48.001Z,55.40
2018-07-10T10:19:48.008Z,56.16
2018-07-10T10:20:48.009Z,57.10
2018-07-10T10:21:48.014Z,57.97
2018-07-10T10:22:48.019Z,58.14
2018-07-10T10:23:48.026Z,57.85
2018-07-10T10:24:48.031Z,58.81
2018-07-10T10:25:48.071Z,59.10
2018-07-10T10:26:48.039Z,59.10
2018-07-10T10:27:48.045Z,58.91
2018-07-10T10:28:48.126Z,57.78
2018-07-10T10:29:48.052Z,57.29
2018-07-10T10:30:48.056Z,57.07
2018-07-10T10:31:48.059Z,57.01
2018-07-10T10:32:48.064Z,57.01
2018-07-10T10:33:48.067Z,57.29
2018-07-10T10:34:48.073Z,55.66
2018-07-10T10:35:48.119Z,55.76
2018-07-10T10:36:48.081Z,55.30
2018-07-10T10:37:48.120Z,55.01
2018-07-10T10:38:48.089Z,53.78
2018-07-10T10:39:48.094Z,53.39
2018-07-10T10:40:48.099Z,53.49
2018-07-10T10:41:48.108Z,52.91
2018-07-10T10:42:48.109Z,52.75
2018-07-10T10:43:48.114Z,53.59
2018-07-10T10:44:48.117Z,53.30
2018-07-10T10:45:48.127Z,53.49
2018-07-10T10:46:48.127Z,53.59
2018-07-10T10:47:48.152Z,54.07
2018-07-10T10:48:48.141Z,54.05
2018-07-10T10:49:48.140Z,54.33
2018-07-10T10:50:48.147Z,54.43
2018-07-10T10:51:48.149Z,53.73
2018-07-10T10:52:48.157Z,54.11
2018-07-10T10:53:48.161Z,55.73
2018-07-10T10:54:48.215Z,55.63
2018-07-10T10:55:48.202Z,55.63
2018-07-10T10:56:48.175Z,55.82
2018-07-10T10:57:48.180Z,55.92
2018-07-10T10:58:48.182Z,54.96
2018-07-10T10:59:48.189Z,53.80
2018-07-10T11:00:48.191Z,54.18
2018-07-10T11:01:48.199Z,55.15
2018-07-10T11:02:48.200Z,54.96
2018-07-10T11:03:48.221Z,54.86
2018-07-10T11:04:48.209Z,55.12
2018-07-10T11:05:48.288Z,55.22
2018-07-10T11:06:48.223Z,55.41
2018-07-10T11:07:48.221Z,56.18
2018-07-10T11:08:48.224Z,55.89
2018-07-10T11:09:48.229Z,55.89
2018-07-10T11:10:48.235Z,55.92
2018-07-10T11:11:48.240Z,55.15
2018-07-10T11:12:48.240Z,54.96
2018-07-10T11:13:48.244Z,55.08
2018-07-10T11:14:48.272Z,54.98
2018-07-10T11:15:48.258Z,54.02
2018-07-10T11:16:48.259Z,52.95
2018-07-10T11:17:48.261Z,52.86
2018-07-10T11:18:48.273Z,52.76
2018-07-10T11:19:48.269Z,52.73
2018-07-10T11:20:48.276Z,53.22
2018-07-10T11:21:48.284Z,53.70
2018-07-10T11:22:48.281Z,53.89
2018-07-10T11:23:48.294Z,53.80
2018-07-10T11:24:48.291Z,53.70
2018-07-10T11:25:48.295Z,52.16
2018-07-10T11:26:48.307Z,52.64
2018-07-10T11:27:48.301Z,53.31
2018-07-10T11:28:48.308Z,53.51
2018-07-10T11:29:48.415Z,53.61
2018-07-10T11:30:48.316Z,53.41
2018-07-10T11:31:48.320Z,54.18
2018-07-10T11:32:48.323Z,53.89
2018-07-10T11:33:48.329Z,52.93
2018-07-10T11:34:48.336Z,53.51
2018-07-10T11:35:48.334Z,53.51
2018-07-10T11:36:48.358Z,52.83
2018-07-10T11:37:48.344Z,52.86
2018-07-10T11:38:48.368Z,53.53
2018-07-10T11:39:48.365Z,53.15
2018-07-10T11:40:48.365Z,52.59
2018-07-10T11:41:48.359Z,52.11
2018-07-10T11:42:48.367Z,51.75
2018-07-10T11:43:48.368Z,51.37
2018-07-10T11:44:48.373Z,50.79
2018-07-10T11:45:48.422Z,50.81
2018-07-10T11:46:48.385Z,50.52
2018-07-10T11:47:48.393Z,49.75
2018-07-10T11:48:48.406Z,49.85
2018-07-10T11:49:48.399Z,49.37
2018-07-10T11:50:48.410Z,49.55
2018-07-10T11:51:48.451Z,49.82
2018-07-10T11:52:48.421Z,50.13
2018-07-10T11:53:48.422Z,50.11
2018-07-10T11:54:48.420Z,50.79
2018-07-10T11:55:48.426Z,50.69
2018-07-10T11:56:48.429Z,49.92
2018-07-10T11:57:48.434Z,49.92
2018-07-10T11:58:48.443Z,50.59
2018-07-10T11:59:48.443Z,51.05
2018-07-10T12:00:48.461Z,51.44
2018-07-10T12:01:48.458Z,52.01
2018-07-10T12:02:48.466Z,51.92
2018-07-10T12:03:48.461Z,52.11
2018-07-10T12:04:48.470Z,52.79
2018-07-10T12:05:48.471Z,55.10
2018-07-10T12:06:48.475Z,55.85
2018-07-10T12:07:48.478Z,56.04
2018-07-10T12:08:48.524Z,56.43
2018-07-10T12:09:48.490Z,56.88
2018-07-10T12:10:48.504Z,57.39
2018-07-10T12:11:48.496Z,57.75
2018-07-10T12:12:48.502Z,57.75
2018-07-10T12:13:48.507Z,57.85
2018-07-10T12:14:48.510Z,57.75
2018-07-10T12:15:48.517Z,57.75
2018-07-10T12:16:48.518Z,57.65
2018-07-10T12:17:48.522Z,57.85
2018-07-10T12:18:48.528Z,57.75
2018-07-10T12:19:48.530Z,57.37
2018-07-10T12:20:48.604Z,56.98
2018-07-10T12:21:48.541Z,57.27
2018-07-10T12:22:48.546Z,56.24
2018-07-10T12:23:48.547Z,55.13
2018-07-10T12:24:48.551Z,52.70
2018-07-10T12:25:48.560Z,50.24
2018-07-10T12:26:48.564Z,47.74
2018-07-10T12:27:48.565Z,46.24
2018-07-10T12:28:48.572Z,45.48
2018-07-10T12:29:48.575Z,44.24
2018-07-10T12:30:48.581Z,42.85
2018-07-10T12:31:48.586Z,41.13
2018-07-10T12:32:48.597Z,39.61
2018-07-10T12:33:48.602Z,37.68
2018-07-10T12:34:48.658Z,37.39
2018-07-10T12:35:48.611Z,36.84
2018-07-10T12:36:48.622Z,36.45
2018-07-10T12:37:48.641Z,35.41
2018-07-10T12:38:48.635Z,34.24
2018-07-10T12:39:48.641Z,33.65
2018-07-10T12:40:48.648Z,33.28
2018-07-10T12:41:48.696Z,33.36
2018-07-10T12:42:48.667Z,32.97
2018-07-10T12:43:48.674Z,32.52
2018-07-10T12:44:48.686Z,31.36
2018-07-10T12:45:48.696Z,30.80
2018-07-10T12:46:48.703Z,30.32
2018-07-10T12:47:48.711Z,30.52
2018-07-10T12:48:48.722Z,29.36
2018-07-10T12:49:48.730Z,29.58
2018-07-10T12:50:48.741Z,29.00
2018-07-10T12:51:48.748Z,28.03
2018-07-10T12:52:48.759Z,27.57